ヘルシンキ/ヴァンター の空港の天気 - METARとTAF

ヘルシンキ・ヴァンター国際空港 ( EFHK / HEL ) - フィンランド ヴァンター
飛行場実況気象(Metar)
観測時間06/17 22:20 EEST (06/17 19:20 UTC)
風向・風速南西 5m/s
視程10km以上
天気現象
なし
気温19℃
湿度46%
気圧1012hPa
METAREFHK 171920Z 23010KT CAVOK 19/07 Q1012 NOSIG
過去の天気等 Google飛行場航空写真 Wunderground天気予報

過去48時間のMETAR

飛行場予報(TAF)
発表時間: 6/17 20:33 EEST (6/17 17:33 UTC)
予報対象時間: 17日21時 EEST ~ 18日21時 EEST
風向・風速南西 5m/s
視程10km以上
少しの雲 雲底高度 1370m
TAF EFHK 171733Z 1718/1818 23010KT 9999 FEW045